Time;durP1;ratioP1;P1;durP2;ratioP2;P2;SDS_P1;SDS_P2;PMS_P1;PMS_P2;Temp;Humidity;BMP_temperature;BMP_pressure;BME280_temperature;BME280_humidity;BME280_pressure;Samples;Min_cycle;Max_cycle;Signal;HPM_P1;HPM_P2
2024/03/24 00:01:43;;;;;;;;;3.00;2.00;;;;;-143.90;100.00;75288.00;4839969;28;102238;-72
2024/03/24 00:04:08;;;;;;;;;5.00;4.00;;;;;-143.90;100.00;75279.72;4865784;28;103384;-72
2024/03/24 00:06:34;;;;;;;;;2.25;1.50;;;;;-143.90;100.00;75285.94;4851843;28;104513;-71
2024/03/24 00:08:59;;;;;;;;;2.50;1.25;;;;;-143.90;100.00;75283.84;4851012;28;102182;-71
2024/03/24 00:11:25;;;;;;;;;5.00;3.00;;;;;-143.90;100.00;75290.06;4836570;28;102597;-72
2024/03/24 00:13:51;;;;;;;;;2.00;1.25;;;;;-143.90;100.00;75288.00;4848966;28;102092;-72
2024/03/24 00:16:16;;;;;;;;;4.00;3.00;;;;;-143.90;100.00;75279.72;4855485;28;104522;-72
2024/03/24 00:18:42;;;;;;;;;4.50;2.75;;;;;-143.90;100.00;75273.53;4860527;28;102170;-72
2024/03/24 00:21:07;;;;;;;;;2.00;1.00;;;;;-143.90;100.00;75269.38;4857432;28;102359;-72
2024/03/24 00:23:33;;;;;;;;;3.00;2.75;;;;;-143.90;100.00;75269.38;4845040;28;103133;-71
2024/03/24 00:25:59;;;;;;;;;2.25;2.00;;;;;-143.90;100.00;75273.53;4850561;28;109114;-72
2024/03/24 00:28:24;;;;;;;;;1.25;1.25;;;;;-143.90;100.00;75267.31;4873309;28;102031;-73
2024/03/24 00:30:50;;;;;;;;;2.00;2.00;;;;;-143.90;100.00;75267.31;4856600;28;102514;-72
2024/03/24 00:33:17;;;;;;;;;0.25;0.25;;;;;-143.90;100.00;75269.38;4846734;28;102658;-72
2024/03/24 00:35:42;;;;;;;;;1.00;1.00;;;;;-143.90;100.00;75285.94;4845596;28;103437;-72
2024/03/24 00:38:08;;;;;;;;;3.00;2.50;;;;;-143.90;100.00;75292.13;4857395;28;102555;-73
2024/03/24 00:40:34;;;;;;;;;2.00;2.00;;;;;-143.90;100.00;75290.06;4849226;28;101990;-71
2024/03/24 00:42:59;;;;;;;;;6.25;3.00;;;;;-143.90;100.00;75281.78;4864746;28;102444;-72
2024/03/24 00:45:25;;;;;;;;;2.25;2.25;;;;;-143.90;100.00;75279.72;4841571;28;104529;-73
2024/03/24 00:47:51;;;;;;;;;4.50;2.50;;;;;-143.90;100.00;75275.59;4854352;28;102397;-72
2024/03/24 00:50:17;;;;;;;;;2.00;2.00;;;;;-143.90;100.00;75269.38;4854364;28;102811;-72
2024/03/24 00:52:43;;;;;;;;;7.00;6.25;;;;;-143.90;100.00;75263.19;4853722;28;102489;-72
2024/03/24 00:55:09;;;;;;;;;8.50;8.00;;;;;-143.90;100.00;75248.72;4843181;28;104804;-72
2024/03/24 00:57:35;;;;;;;;;10.00;7.00;;;;;-143.90;100.00;75250.78;4839464;28;102593;-72
2024/03/24 01:00:02;;;;;;;;;6.00;6.00;;;;;-143.90;100.00;75242.50;4848642;28;102546;-72
2024/03/24 01:02:28;;;;;;;;;5.00;4.50;;;;;-143.90;100.00;75238.38;4866214;28;102260;-73
2024/03/24 01:04:53;;;;;;;;;3.00;3.00;;;;;-143.90;100.00;75240.44;4846701;28;104520;-72
2024/03/24 01:07:19;;;;;;;;;4.00;3.50;;;;;-143.90;100.00;75246.66;4845422;28;102446;-72
2024/03/24 01:09:44;;;;;;;;;2.75;2.00;;;;;-143.90;100.00;75250.78;4848631;28;102302;-73
2024/03/24 01:12:10;;;;;;;;;3.00;2.25;;;;;-143.90;100.00;75254.91;4860781;28;102289;-72
2024/03/24 01:14:36;;;;;;;;;4.50;3.00;;;;;-143.90;100.00;75263.19;4856115;28;104644;-72
2024/03/24 01:17:01;;;;;;;;;1.75;1.75;;;;;-143.90;100.00;75267.31;4858274;28;102371;-72
2024/03/24 01:19:27;;;;;;;;;4.00;3.00;;;;;-143.90;100.00;75271.47;4848835;28;102236;-72
2024/03/24 01:21:53;;;;;;;;;6.25;2.00;;;;;-143.90;100.00;75275.59;4856676;28;102317;-72
2024/03/24 01:24:18;;;;;;;;;1.00;1.00;;;;;-143.90;100.00;75285.94;4859330;28;104694;-72
2024/03/24 01:26:44;;;;;;;;;7.50;5.50;;;;;-143.90;100.00;75285.94;4852406;28;102338;-72
2024/03/24 01:29:11;;;;;;;;;5.00;3.50;;;;;-143.90;100.00;75288.00;4853290;28;102080;-71
2024/03/24 01:31:37;;;;;;;;;6.50;6.00;;;;;-143.90;100.00;75277.66;4836626;28;102852;-72
2024/03/24 01:34:02;;;;;;;;;5.00;3.00;;;;;-143.90;100.00;75279.72;4847590;28;104494;-72
2024/03/24 01:36:28;;;;;;;;;3.00;3.00;;;;;-143.90;100.00;75279.72;4854878;28;101992;-72
2024/03/24 01:38:53;;;;;;;;;5.00;4.00;;;;;-143.90;100.00;75279.72;4850902;28;102060;-71
2024/03/24 01:41:19;;;;;;;;;6.00;3.00;;;;;-143.90;100.00;75283.84;4844880;28;102625;-72
2024/03/24 01:43:44;;;;;;;;;3.00;2.50;;;;;-143.90;100.00;75288.00;4848193;28;104486;-72
2024/03/24 01:46:10;;;;;;;;;2.00;2.00;;;;;-143.90;100.00;75304.53;4855776;28;102011;-71
2024/03/24 01:48:36;;;;;;;;;1.00;1.00;;;;;-143.90;100.00;75308.66;4849238;28;103989;-72
2024/03/24 01:51:08;;;;;;;;;3.50;3.00;;;;;-143.90;100.00;75308.66;4852038;28;105414;-72
2024/03/24 01:53:36;;;;;;;;;5.00;4.50;;;;;-143.90;100.00;75308.66;4846809;28;109943;-71
2024/03/24 01:56:02;;;;;;;;;2.25;2.25;;;;;-143.90;100.00;75316.94;4845483;28;102200;-72
2024/03/24 01:58:31;;;;;;;;;3.00;3.00;;;;;-143.90;100.00;75314.88;4857938;28;102198;-72
2024/03/24 02:00:58;;;;;;;;;4.00;3.00;;;;;-143.90;100.00;75314.88;4862976;28;102608;-72
2024/03/24 02:03:23;;;;;;;;;3.00;3.00;;;;;-143.90;100.00;75308.66;4833861;28;104667;-70
2024/03/24 02:05:49;;;;;;;;;5.50;3.00;;;;;-143.90;100.00;75310.75;4844106;28;102525;-72
2024/03/24 02:08:15;;;;;;;;;2.00;2.00;;;;;-143.90;100.00;75316.94;4861696;28;102011;-72
2024/03/24 02:10:41;;;;;;;;;4.50;2.50;;;;;-143.90;100.00;75310.75;4848807;28;101792;-72
2024/03/24 02:13:08;;;;;;;;;2.75;2.75;;;;;-143.90;100.00;75312.81;4851544;28;105003;-71
2024/03/24 02:15:34;;;;;;;;;2.00;1.75;;;;;-143.90;100.00;75306.59;4843749;28;103011;-71
2024/03/24 02:17:59;;;;;;;;;2.50;2.50;;;;;-143.90;100.00;75300.41;4849118;28;102652;-72
2024/03/24 02:20:25;;;;;;;;;2.00;2.00;;;;;-143.90;100.00;75306.59;4856006;28;103625;-72
2024/03/24 02:22:50;;;;;;;;;5.50;3.00;;;;;-143.90;100.00;75302.47;4852214;28;103413;-71
2024/03/24 02:25:16;;;;;;;;;2.00;2.00;;;;;-143.90;100.00;75302.47;4847700;28;102020;-71
2024/03/24 02:27:42;;;;;;;;;2.75;2.75;;;;;-143.90;100.00;75298.34;4841437;28;102953;-71
2024/03/24 02:30:10;;;;;;;;;3.50;3.00;;;;;-143.90;100.00;75294.19;4846457;28;102584;-71
2024/03/24 02:32:45;;;;;;;;;4.50;3.00;;;;;-143.90;100.00;75300.41;4845940;28;104597;-71
2024/03/24 02:35:15;;;;;;;;;5.00;3.00;;;;;-143.90;100.00;75296.25;4859973;28;102315;-71
2024/03/24 02:37:40;;;;;;;;;7.50;6.25;;;;;-143.90;100.00;75300.41;4838497;28;102451;-71
2024/03/24 02:40:09;;;;;;;;;3.00;3.00;;;;;-143.90;100.00;75304.53;4849344;28;105043;-71
2024/03/24 02:42:35;;;;;;;;;5.25;3.00;;;;;-143.90;100.00;75310.75;4868364;28;104597;-71
2024/03/24 02:45:02;;;;;;;;;2.75;2.75;;;;;-143.90;100.00;75306.59;4851888;28;102418;-72
2024/03/24 02:47:27;;;;;;;;;5.00;3.00;;;;;-143.90;100.00;75321.06;4833742;28;102249;-71
2024/03/24 02:49:53;;;;;;;;;7.00;5.25;;;;;-143.90;100.00;75323.16;4843298;28;102832;-71
2024/03/24 02:52:19;;;;;;;;;6.25;5.25;;;;;-143.90;100.00;75337.63;4850738;28;104688;-72
2024/03/24 02:54:44;;;;;;;;;5.25;2.00;;;;;-143.90;100.00;75341.75;4845122;28;102453;-72
2024/03/24 02:57:11;;;;;;;;;6.75;5.00;;;;;-143.90;100.00;75356.22;4866848;28;102188;-72
2024/03/24 02:59:36;;;;;;;;;6.00;5.00;;;;;-143.90;100.00;75368.63;4844476;28;102504;-72
2024/03/24 03:02:02;;;;;;;;;3.50;2.25;;;;;-143.90;100.00;75366.56;4853051;28;104568;-72
2024/03/24 03:04:28;;;;;;;;;3.00;2.00;;;;;-143.90;100.00;75383.09;4862422;28;102301;-72
2024/03/24 03:06:54;;;;;;;;;1.50;1.50;;;;;-143.90;100.00;75389.31;4852262;28;102025;-72
2024/03/24 03:09:20;;;;;;;;;1.00;1.00;;;;;-143.90;100.00;75401.72;4843687;28;102875;-72
2024/03/24 03:11:45;;;;;;;;;7.00;6.00;;;;;-143.90;100.00;75407.91;4840836;28;103329;-73
2024/03/24 03:14:11;;;;;;;;;9.75;8.50;;;;;-143.90;100.00;75412.03;4854954;28;102007;-72
2024/03/24 03:16:38;;;;;;;;;10.00;9.00;;;;;-143.90;100.00;75409.97;4848909;28;102471;-72
2024/03/24 03:19:04;;;;;;;;;5.00;5.00;;;;;-143.90;100.00;75403.78;4873000;28;102315;-72
2024/03/24 03:21:29;;;;;;;;;5.50;5.00;;;;;-143.90;100.00;75397.56;4849134;28;108638;-72
2024/03/24 03:23:55;;;;;;;;;10.00;8.50;;;;;-143.90;100.00;75395.50;4852189;28;104898;-72
2024/03/24 03:26:21;;;;;;;;;6.75;5.75;;;;;-143.90;100.00;75391.38;4849082;28;105499;-72
2024/03/24 03:28:47;;;;;;;;;9.00;6.25;;;;;-143.90;100.00;75381.03;4859510;28;103313;-72
2024/03/24 03:31:13;;;;;;;;;7.00;7.00;;;;;-143.90;100.00;75372.75;4847040;28;104574;-72
2024/03/24 03:33:39;;;;;;;;;5.00;2.50;;;;;-143.90;100.00;75358.28;4850773;28;102191;-72
2024/03/24 03:36:05;;;;;;;;;5.00;5.00;;;;;-143.90;100.00;75356.22;4857020;28;103237;-72
2024/03/24 03:38:30;;;;;;;;;7.00;5.25;;;;;-143.90;100.00;75345.88;4855431;28;102280;-72
2024/03/24 03:40:56;;;;;;;;;11.00;7.50;;;;;-143.90;100.00;75341.75;4846763;28;104423;-72
2024/03/24 03:43:22;;;;;;;;;9.00;7.00;;;;;-143.90;100.00;75327.28;4851142;28;102319;-73
2024/03/24 03:45:48;;;;;;;;;6.75;6.00;;;;;-143.90;100.00;75314.88;4846103;28;102194;-72
2024/03/24 03:48:14;;;;;;;;;7.00;5.50;;;;;-143.90;100.00;75310.75;4863405;28;102077;-72
2024/03/24 03:50:41;;;;;;;;;5.75;5.00;;;;;-143.90;100.00;75312.81;4856624;28;104475;-72
2024/03/24 03:53:07;;;;;;;;;4.50;3.00;;;;;-143.90;100.00;75312.81;4845000;28;102313;-72
2024/03/24 03:55:33;;;;;;;;;7.00;6.00;;;;;-143.90;100.00;75308.66;4863784;28;102150;-72
2024/03/24 03:58:00;;;;;;;;;5.25;5.00;;;;;-143.90;100.00;75300.41;4848853;28;102359;-73
2024/03/24 04:00:25;;;;;;;;;9.00;7.00;;;;;-143.90;100.00;75300.41;4849544;28;104642;-73
2024/03/24 04:02:51;;;;;;;;;7.50;6.00;;;;;-143.90;100.00;75283.84;4852066;28;102650;-72
2024/03/24 04:05:18;;;;;;;;;7.50;6.25;;;;;-143.90;100.00;75281.78;4858935;28;102367;-72
2024/03/24 04:07:44;;;;;;;;;10.25;9.50;;;;;-143.90;100.00;75275.59;4869332;28;101994;-72
2024/03/24 04:10:09;;;;;;;;;7.50;7.50;;;;;-143.90;100.00;75279.72;4872559;28;104962;-71
2024/03/24 04:12:37;;;;;;;;;11.25;10.25;;;;;-143.90;100.00;75285.94;4857892;28;104390;-71
2024/03/24 04:15:03;;;;;;;;;11.00;9.00;;;;;-143.90;100.00;75271.47;4859921;28;104185;-72
2024/03/24 04:17:29;;;;;;;;;6.75;6.00;;;;;-143.90;100.00;75269.38;4847429;28;101987;-72
2024/03/24 04:19:56;;;;;;;;;8.50;7.00;;;;;-143.90;100.00;75271.47;4853080;28;104826;-72
2024/03/24 04:22:22;;;;;;;;;5.75;4.00;;;;;-143.90;100.00;75269.38;4853729;28;102411;-72
2024/03/24 04:24:50;;;;;;;;;5.25;4.00;;;;;-143.90;100.00;75267.31;4859568;28;101995;-72
2024/03/24 04:27:16;;;;;;;;;7.00;7.00;;;;;-143.90;100.00;75267.31;4850529;28;102328;-72
2024/03/24 04:29:42;;;;;;;;;5.25;5.00;;;;;-143.90;100.00;75254.91;4843659;28;104769;-72
2024/03/24 04:32:08;;;;;;;;;5.75;5.00;;;;;-143.90;100.00;75242.50;4857097;28;102464;-72
2024/03/24 04:34:34;;;;;;;;;8.50;6.00;;;;;-143.90;100.00;75252.84;4865801;28;102467;-72
2024/03/24 04:37:00;;;;;;;;;6.50;6.50;;;;;-143.90;100.00;75250.78;4851369;28;102501;-72
2024/03/24 04:39:25;;;;;;;;;8.00;6.50;;;;;-143.90;100.00;75250.78;4847840;28;104532;-72
2024/03/24 04:41:51;;;;;;;;;6.00;6.00;;;;;-143.90;100.00;75246.66;4855419;28;102513;-72
2024/03/24 04:44:17;;;;;;;;;6.50;5.75;;;;;-143.90;100.00;75244.59;4853642;28;102400;-72
2024/03/24 04:46:42;;;;;;;;;6.25;6.00;;;;;-143.90;100.00;75238.38;4865781;28;102612;-72
2024/03/24 04:49:08;;;;;;;;;10.00;6.75;;;;;-143.90;100.00;75234.25;4854293;28;104702;-72
2024/03/24 04:51:34;;;;;;;;;6.50;6.25;;;;;-143.90;100.00;75234.25;4847617;28;102357;-72
2024/03/24 04:54:00;;;;;;;;;9.50;8.50;;;;;-143.90;100.00;75230.09;4868102;28;102500;-72
2024/03/24 04:56:26;;;;;;;;;11.25;8.00;;;;;-143.90;100.00;75219.78;4852655;28;104647;-72
2024/03/24 04:58:51;;;;;;;;;7.00;6.00;;;;;-143.90;100.00;75217.69;4858850;28;104642;-72
2024/03/24 05:01:17;;;;;;;;;6.50;5.75;;;;;-143.90;100.00;75211.50;4863707;28;102405;-72
2024/03/24 05:03:43;;;;;;;;;6.00;5.25;;;;;-143.90;100.00;75213.56;4836555;28;102404;-72
2024/03/24 05:06:09;;;;;;;;;7.25;5.00;;;;;-143.90;100.00;75209.44;4853402;28;102054;-72
2024/03/24 05:08:37;;;;;;;;;5.50;5.50;;;;;-143.90;100.00;75207.38;4863688;28;104640;-72
2024/03/24 05:11:06;;;;;;;;;4.00;3.00;;;;;-143.90;100.00;75201.16;4851272;28;102100;-72
2024/03/24 05:13:33;;;;;;;;;4.50;3.50;;;;;-143.90;100.00;75201.16;4839539;28;102189;-72
2024/03/24 05:15:59;;;;;;;;;5.00;5.00;;;;;-143.90;100.00;75197.03;4868669;28;102165;-72
2024/03/24 05:18:25;;;;;;;;;3.50;3.00;;;;;-143.90;100.00;75192.91;4858916;28;104822;-72
2024/03/24 05:20:50;;;;;;;;;5.00;3.00;;;;;-143.90;100.00;75182.56;4850327;28;102530;-72
2024/03/24 05:23:19;;;;;;;;;5.00;4.00;;;;;-143.90;100.00;75178.41;4870601;28;102633;-72
2024/03/24 05:25:48;;;;;;;;;6.50;4.50;;;;;-143.90;100.00;75176.34;4839776;28;103236;-72
2024/03/24 05:28:14;;;;;;;;;7.25;5.50;;;;;-143.90;100.00;75172.22;4850620;28;104631;-72
2024/03/24 05:30:40;;;;;;;;;5.00;3.00;;;;;-143.90;100.00;75166.03;4867195;28;102555;-72
2024/03/24 05:33:05;;;;;;;;;7.00;7.00;;;;;-143.90;100.00;75166.03;4856808;28;102123;-72
2024/03/24 05:35:31;;;;;;;;;6.00;3.50;;;;;-143.90;100.00;75170.16;4861418;28;102339;-72
2024/03/24 05:37:56;;;;;;;;;7.00;5.75;;;;;-143.90;100.00;75170.16;4852680;28;104532;-73
2024/03/24 05:40:22;;;;;;;;;11.50;8.00;;;;;-143.90;100.00;75180.50;4861001;28;102379;-72
2024/03/24 05:42:47;;;;;;;;;7.50;6.25;;;;;-143.90;100.00;75182.56;4842521;28;101984;-73
2024/03/24 05:45:15;;;;;;;;;7.50;6.00;;;;;-143.90;100.00;75188.75;4848327;28;102564;-73
2024/03/24 05:47:40;;;;;;;;;8.00;8.00;;;;;-143.90;100.00;75180.50;4836226;28;106374;-72
2024/03/24 05:50:06;;;;;;;;;7.75;7.00;;;;;-143.90;100.00;75182.56;4844495;28;102310;-72
2024/03/24 05:52:35;;;;;;;;;7.25;6.00;;;;;-143.90;100.00;75186.69;4862199;28;102840;-73
2024/03/24 05:55:04;;;;;;;;;9.00;6.75;;;;;-143.90;100.00;75176.34;4850897;28;102122;-72
2024/03/24 05:57:31;;;;;;;;;6.00;5.75;;;;;-143.90;100.00;75172.22;4843642;28;104671;-72
2024/03/24 05:59:56;;;;;;;;;5.00;5.00;;;;;-143.90;100.00;75172.22;4867414;28;102463;-72
2024/03/24 06:02:22;;;;;;;;;3.50;2.75;;;;;-143.90;100.00;75163.94;4856380;28;105628;-73
2024/03/24 06:04:47;;;;;;;;;7.50;7.00;;;;;-143.90;100.00;75168.09;4853161;28;102307;-73
2024/03/24 06:07:13;;;;;;;;;14.75;11.00;;;;;-143.90;100.00;75172.22;4854785;28;104522;-73
2024/03/24 06:09:39;;;;;;;;;11.25;10.00;;;;;-143.90;100.00;75168.09;4847799;28;102751;-72
2024/03/24 06:12:04;;;;;;;;;16.25;14.75;;;;;-143.90;100.00;75176.34;4856417;28;102434;-72
2024/03/24 06:14:31;;;;;;;;;11.75;10.75;;;;;-143.90;100.00;75166.03;4850379;28;102516;-73
2024/03/24 06:16:56;;;;;;;;;11.00;7.50;;;;;-143.90;100.00;75153.63;4851860;28;104600;-72
2024/03/24 06:19:22;;;;;;;;;11.25;6.75;;;;;-143.90;100.00;75147.41;4851094;28;102282;-72
2024/03/24 06:21:49;;;;;;;;;8.75;7.00;;;;;-143.90;100.00;75132.94;4843830;28;101889;-72
2024/03/24 06:24:16;;;;;;;;;7.00;5.00;;;;;-143.90;100.00;75132.94;4860085;28;102369;-72
2024/03/24 06:26:42;;;;;;;;;6.00;5.50;;;;;-143.90;100.00;75126.75;4854884;28;104554;-72
2024/03/24 06:29:07;;;;;;;;;5.00;5.00;;;;;-143.90;100.00;75120.53;4848788;28;103443;-70
2024/03/24 06:31:33;;;;;;;;;5.00;3.00;;;;;-143.90;100.00;75118.47;4844938;28;102563;-71
2024/03/24 06:34:00;;;;;;;;;7.50;6.00;;;;;-143.90;100.00;75114.34;4853710;28;102423;-72
2024/03/24 06:36:26;;;;;;;;;7.25;7.00;;;;;-143.90;100.00;75118.47;4868401;28;104591;-72
2024/03/24 06:38:51;;;;;;;;;9.25;6.25;;;;;-143.90;100.00;75106.06;4867871;28;102187;-73
2024/03/24 06:41:17;;;;;;;;;5.00;5.00;;;;;-143.90;100.00;75101.94;4850428;28;102634;-72
2024/03/24 06:43:43;;;;;;;;;7.25;6.00;;;;;-143.90;100.00;75089.53;4852823;28;103607;-73
2024/03/24 06:46:11;;;;;;;;;6.50;6.50;;;;;-143.90;100.00;75089.53;4844941;28;104517;-73
2024/03/24 06:48:37;;;;;;;;;8.00;6.00;;;;;-143.90;100.00;75085.38;4849938;28;105113;-72
2024/03/24 06:51:04;;;;;;;;;4.75;4.75;;;;;-143.90;100.00;75077.13;4848671;28;102415;-73
2024/03/24 06:53:30;;;;;;;;;7.50;6.25;;;;;-143.90;100.00;75081.25;4844475;28;102306;-72
2024/03/24 06:55:56;;;;;;;;;10.00;7.00;;;;;-143.90;100.00;75085.38;4853880;28;104461;-72
2024/03/24 06:58:21;;;;;;;;;6.50;6.25;;;;;-143.90;100.00;75087.47;4851490;28;102288;-72
2024/03/24 07:00:53;;;;;;;;;10.25;7.00;;;;;-143.90;100.00;75093.66;4847483;28;102082;-73
2024/03/24 07:03:22;;;;;;;;;7.00;6.50;;;;;-143.90;100.00;75101.94;4851059;28;102608;-73
2024/03/24 07:05:48;;;;;;;;;6.25;5.75;;;;;-143.90;100.00;75104.00;4847211;28;104562;-73
2024/03/24 07:08:14;;;;;;;;;3.00;3.00;;;;;-143.90;100.00;75101.94;4852297;28;102612;-72
2024/03/24 07:10:40;;;;;;;;;8.50;7.00;;;;;-143.90;100.00;75106.06;4849153;28;101945;-72
2024/03/24 07:13:05;;;;;;;;;15.75;12.50;;;;;-143.90;100.00;75114.34;4849519;28;102349;-73
2024/03/24 07:15:31;;;;;;;;;14.00;11.50;;;;;-143.90;100.00;75120.53;4834163;28;110310;-71
2024/03/24 07:17:57;;;;;;;;;14.75;12.00;;;;;-143.90;100.00;75139.16;4834387;28;105205;-72
2024/03/24 07:20:22;;;;;;;;;13.75;12.00;;;;;-143.90;100.00;75141.22;4829822;28;105080;-72
2024/03/24 07:22:50;;;;;;;;;10.75;9.00;;;;;-143.90;100.00;75135.00;4828867;28;103321;-73
2024/03/24 07:25:16;;;;;;;;;8.75;8.00;;;;;-143.90;100.00;75120.53;4832477;28;104713;-73
2024/03/24 07:27:42;;;;;;;;;10.75;10.75;;;;;-143.90;100.00;75118.47;4820410;28;102181;-72
2024/03/24 07:30:07;;;;;;;;;11.00;9.00;;;;;-143.90;100.00;75106.06;4828873;28;101980;-71
2024/03/24 07:32:34;;;;;;;;;7.50;7.00;;;;;-143.90;100.00;75106.06;4836346;28;102149;-73
2024/03/24 07:35:00;;;;;;;;;10.00;7.00;;;;;-143.90;100.00;75116.41;4831742;28;104860;-71
2024/03/24 07:37:25;;;;;;;;;12.00;11.75;;;;;-143.90;100.00;75126.75;4819472;28;103012;-69
2024/03/24 07:39:51;;;;;;;;;16.00;15.00;;;;;-143.90;100.00;75130.88;4825683;28;106218;-72
2024/03/24 07:42:16;;;;;;;;;20.25;16.75;;;;;-143.90;100.00;75143.28;4836398;28;102170;-72
2024/03/24 07:44:43;;;;;;;;;15.50;12.00;;;;;-143.90;100.00;75147.41;4828684;28;104761;-72
2024/03/24 07:47:08;;;;;;;;;12.00;12.00;;;;;-143.90;100.00;75139.16;4826396;28;102346;-73
2024/03/24 07:49:34;;;;;;;;;15.50;13.00;;;;;-143.90;100.00;75143.28;4841875;28;101961;-73
2024/03/24 07:52:00;;;;;;;;;11.75;10.75;;;;;-143.90;100.00;75143.28;4851571;28;102432;-72
2024/03/24 07:54:25;;;;;;;;;10.50;10.00;;;;;-143.90;100.00;75155.69;4831707;28;104561;-72
2024/03/24 07:56:51;;;;;;;;;12.00;10.75;;;;;-143.90;100.00;75155.69;4827577;28;102503;-72
2024/03/24 07:59:17;;;;;;;;;15.75;11.75;;;;;-143.90;100.00;75159.81;4821909;28;102461;-73
2024/03/24 08:01:43;;;;;;;;;13.50;8.75;;;;;-143.90;100.00;75151.53;4820942;28;102004;-73
2024/03/24 08:04:09;;;;;;;;;11.25;10.75;;;;;-143.90;100.00;75166.03;4812338;28;104619;-72
2024/03/24 08:06:35;;;;;;;;;10.25;9.25;;;;;-143.90;100.00;75178.41;4823170;28;102682;-73
2024/03/24 08:09:01;;;;;;;;;14.75;13.00;;;;;-143.90;100.00;75186.69;4836546;28;109073;-73
2024/03/24 08:11:27;;;;;;;;;14.00;12.75;;;;;-143.90;100.00;75203.22;4812800;28;104871;-72
2024/03/24 08:13:52;;;;;;;;;12.00;11.00;;;;;-143.90;100.00;75209.44;4827572;28;104610;-73
2024/03/24 08:16:18;;;;;;;;;12.25;8.00;;;;;-143.90;100.00;75213.56;4825645;28;102070;-73
2024/03/24 08:18:44;;;;;;;;;6.00;5.75;;;;;-143.90;100.00;75217.69;4824053;28;103038;-72
2024/03/24 08:21:09;;;;;;;;;12.25;11.25;;;;;-143.90;100.00;75234.25;4824183;28;102677;-73
2024/03/24 08:23:35;;;;;;;;;15.75;12.00;;;;;-143.90;100.00;75250.78;4818207;28;104570;-72
2024/03/24 08:26:00;;;;;;;;;12.00;11.00;;;;;-143.90;100.00;75267.31;4825993;28;102074;-72
2024/03/24 08:28:26;;;;;;;;;19.25;15.75;;;;;-143.90;100.00;75296.25;4817252;28;102252;-73
2024/03/24 08:30:52;;;;;;;;;18.25;15.75;;;;;-143.90;100.00;75308.66;4831632;28;102491;-72
2024/03/24 08:33:18;;;;;;;;;17.50;14.50;;;;;-143.90;100.00;75337.63;4845139;28;104764;-72
2024/03/24 08:35:44;;;;;;;;;11.00;9.25;;;;;-143.90;100.00;75358.28;4819244;28;102006;-73
2024/03/24 08:38:09;;;;;;;;;14.25;11.50;;;;;-143.90;100.00;75387.22;4830652;28;102507;-74
2024/03/24 08:40:35;;;;;;;;;14.00;12.00;;;;;-143.90;100.00;75424.44;4833771;28;102027;-74
2024/03/24 08:43:00;;;;;;;;;13.50;10.00;;;;;-143.90;100.00;75469.94;4825885;28;104635;-73
2024/03/24 08:45:26;;;;;;;;;9.50;8.50;;;;;-143.90;100.00;75482.34;4826262;28;102974;-73
2024/03/24 08:47:52;;;;;;;;;10.75;7.50;;;;;-143.90;100.00;75488.53;4822343;28;102880;-73
2024/03/24 08:50:17;;;;;;;;;5.75;5.50;;;;;-143.90;100.00;75494.75;4825473;28;104318;-72
2024/03/24 08:52:43;;;;;;;;;6.75;6.00;;;;;-143.90;100.00;75498.88;4827849;28;104534;-72
2024/03/24 08:55:08;;;;;;;;;7.25;6.50;;;;;-143.90;100.00;75500.94;4827316;28;102178;-72
2024/03/24 08:57:35;;;;;;;;;7.50;7.00;;;;;-143.90;100.00;75500.94;4823515;28;102039;-73
2024/03/24 09:00:01;;;;;;;;;9.00;7.75;;;;;-143.90;100.00;75503.03;4832484;28;102319;-74
2024/03/24 09:02:27;;;;;;;;;6.50;3.25;;;;;-143.90;100.00;75494.75;4828905;28;104684;-73
2024/03/24 09:04:55;;;;;;;;;6.00;5.00;;;;;-143.90;100.00;75486.47;4409952;28;10000847;-74
2024/03/24 09:07:21;;;;;;;;;5.00;5.00;;;;;-143.90;100.00;75478.22;4649406;28;5001869;-74
2024/03/24 09:09:47;;;;;;;;;9.75;7.00;;;;;-143.90;100.00;75465.81;4821023;28;102162;-73
2024/03/24 09:12:13;;;;;;;;;13.25;10.00;;;;;-143.90;100.00;75461.66;4829414;28;102056;-74
2024/03/24 09:14:39;;;;;;;;;10.25;10.00;;;;;-143.90;100.00;75441.00;4820830;28;104741;-73
2024/03/24 09:17:05;;;;;;;;;13.25;8.50;;;;;-143.90;100.00;75426.50;4827880;28;102691;-74
2024/03/24 09:19:30;;;;;;;;;15.50;9.50;;;;;-143.90;100.00;75412.03;4844976;28;102007;-73
2024/03/24 09:21:56;;;;;;;;;15.25;10.25;;;;;-143.90;100.00;75403.78;4851827;28;102105;-73
2024/03/24 09:24:22;;;;;;;;;10.50;6.25;;;;;-143.90;100.00;75370.69;4855473;28;104857;-73
2024/03/24 09:26:49;;;;;;;;;7.00;6.00;;;;;-143.90;100.00;75337.63;4853630;28;102634;-73
2024/03/24 09:29:14;;;;;;;;;7.50;6.25;;;;;-143.90;100.00;75304.53;4856863;28;102136;-73
2024/03/24 09:31:40;;;;;;;;;6.50;6.00;;;;;-143.90;100.00;75288.00;4861089;28;102550;-72
2024/03/24 09:34:06;;;;;;;;;5.50;5.25;;;;;-143.90;100.00;75271.47;4853430;28;104449;-73
2024/03/24 09:36:31;;;;;;;;;5.00;3.50;;;;;-143.90;100.00;75271.47;4855824;28;102288;-73
2024/03/24 09:38:57;;;;;;;;;7.50;6.00;;;;;-143.90;100.00;75267.31;4846900;28;102137;-73
2024/03/24 09:41:27;;;;;;;;;6.00;5.00;;;;;-143.90;100.00;75240.44;4855159;28;102588;-73
2024/03/24 09:43:52;;;;;;;;;5.75;5.00;;;;;-143.90;100.00;75240.44;4838326;28;103311;-73
2024/03/24 09:46:18;;;;;;;;;3.00;3.00;;;;;-143.90;100.00;75215.63;4851680;28;105203;-73
2024/03/24 09:48:44;;;;;;;;;4.00;4.00;;;;;-143.90;100.00;75201.16;4854592;28;104581;-72
2024/03/24 09:51:10;;;;;;;;;3.00;3.00;;;;;-143.90;100.00;75170.16;4847624;28;105064;-74
2024/03/24 09:53:37;;;;;;;;;5.25;5.00;;;;;-143.90;100.00;75147.41;4844377;28;104422;-72
2024/03/24 09:56:07;;;;;;;;;5.75;5.50;;;;;-143.90;100.00;75101.94;4852790;28;102820;-72
2024/03/24 09:58:34;;;;;;;;;10.50;7.25;;;;;-143.90;100.00;75052.31;4847267;28;103782;-73
2024/03/24 10:01:02;;;;;;;;;8.50;7.00;;;;;-143.90;100.00;75019.22;4870329;28;102725;-73
2024/03/24 10:03:28;;;;;;;;;7.00;5.50;;;;;-143.90;100.00;74977.88;4844364;28;104705;-73
2024/03/24 10:05:54;;;;;;;;;5.00;4.00;;;;;-143.90;100.00;74944.81;4852834;28;103111;-71
2024/03/24 10:08:20;;;;;;;;;3.00;3.00;;;;;-143.90;100.00;74915.88;4850029;28;102209;-72
2024/03/24 10:10:45;;;;;;;;;7.00;6.00;;;;;-143.90;100.00;74891.06;4849522;28;102407;-73
2024/03/24 10:13:11;;;;;;;;;3.00;2.25;;;;;-143.90;100.00;74866.25;4851128;28;104571;-73
2024/03/24 10:15:37;;;;;;;;;6.75;3.75;;;;;-143.90;100.00;74843.53;4840710;28;102338;-72
2024/03/24 10:18:07;;;;;;;;;4.00;4.00;;;;;-143.90;100.00;74831.13;4849658;28;104192;-73
2024/03/24 10:20:34;;;;;;;;;5.00;4.00;;;;;-143.90;100.00;74795.97;4858879;28;102409;-73
2024/03/24 10:23:00;;;;;;;;;7.00;7.00;;;;;-143.90;100.00;74785.63;4852342;28;104727;-73
2024/03/24 10:25:28;;;;;;;;;12.50;8.50;;;;;-143.90;100.00;74771.16;4851580;28;102486;-73
2024/03/24 10:27:55;;;;;;;;;20.25;18.00;;;;;-143.90;100.00;74808.38;4856606;28;103130;-73
2024/03/24 10:30:22;;;;;;;;;20.50;19.25;;;;;-143.90;100.00;74889.00;4853377;28;102435;-73
2024/03/24 10:32:48;;;;;;;;;23.75;17.50;;;;;-143.90;100.00;74920.00;4857993;28;104718;-72
2024/03/24 10:35:14;;;;;;;;;13.00;13.00;;;;;-143.90;100.00;74911.72;4851181;28;102466;-72
2024/03/24 10:37:40;;;;;;;;;26.75;20.00;;;;;-143.90;100.00;74998.56;4849027;28;102320;-71
2024/03/24 10:40:12;;;;;;;;;20.00;18.00;;;;;-143.90;100.00;75019.22;4856251;28;102605;-73
2024/03/24 10:42:49;;;;;;;;;22.00;20.25;;;;;-143.90;100.00;75085.38;4847642;28;108977;-72
2024/03/24 10:45:21;;;;;;;;;17.25;16.50;;;;;-143.90;100.00;75101.94;4849926;28;102330;-72
2024/03/24 10:47:54;;;;;;;;;19.00;17.00;;;;;-143.90;100.00;75126.75;4841186;28;102302;-73
2024/03/24 10:50:20;;;;;;;;;17.25;15.50;;;;;-143.90;100.00;75110.19;4875126;28;102154;-72
2024/03/24 10:52:47;;;;;;;;;20.75;20.00;;;;;-143.90;100.00;75163.94;4852628;28;104848;-73